ADDS METAR Data INFO
IDs: Format: Raw Decoded Include TAF

Data at: 1414 UTC 12 Dec 2017

PAGY 121355Z AUTO 00000KT 2 1/2SM -RA BR BKN005 BKN013 OVC047 03/02 A3000 RMK P0001 T00330022 TSNO $ VIA AUTODIAL
PAGY 121353Z AUTO 00000KT 1 3/4SM -RA BR SCT005 BKN013 OVC049 03/02 A3000 RMK UPB1258E02RAB02 SLP158 P0000 T00330022 TSNO $ VIA AUTODIAL
PAGY 121347Z AUTO 00000KT 1 3/4SM -RA BR FEW003 BKN015 OVC049 03/02 A3000 RMK UPB1258E02RAB02 P0000 TSNO $ VIA AUTODIAL
PAGY 121344Z AUTO 00000KT 2 1/2SM -RA BR FEW005 SCT015 OVC049 03/02 A2999 RMK UPB1258E02RAB02 P0000 T00330022 TSNO $ VIA AUTODIAL
PAGY 121253Z AUTO 00000KT 8SM BKN050 OVC055 03/02 A2999 RMK RAE30UPB30E36 SLP155 P0000 T00330022 TSNO $ VIA AUTODIAL
PAGY 121219Z AUTO 05004KT 3SM -RA BR BKN050 OVC060 03/02 A3000 RMK P0000 T00330017 TSNO $ VIA AUTODIAL
PAGY 121208Z AUTO 02003KT 1 3/4SM -RA BR OVC055 03/02 A3000 RMK VIS 1V5 P0000 T00280022 TSNO $ VIA AUTODIAL
PAGY 121153Z AUTO 00000KT 7SM -RA FEW047 OVC055 03/02 A3000 RMK RAB1059 SLP159 P0001 60012 70086 T00330022 10044 20033 50000 TSNO $ VIA AUTODIAL
PAGY 121053Z AUTO 00000KT 10SM OVC060 04/03 A3001 RMK RAE44 SLP162 P0001 T00390028 TSNO $ VIA AUTODIAL
PAGY 121040Z AUTO 29003KT 10SM -RA FEW008 FEW012 OVC060 04/03 A3001 RMK P0001 T00390028 TSNO $ VIA AUTODIAL
PAGY 121031Z AUTO 00000KT 7SM -RA FEW010 BKN049 OVC060 04/03 A3001 RMK P0001 T00390028 TSNO $ VIA AUTODIAL
PAGY 120953Z AUTO 00000KT 8SM -RA FEW007 BKN027 OVC055 03/02 A3002 RMK SLP164 P0002 T00330022 TSNO $ VIA AUTODIAL
PAGY 120942Z AUTO 03003KT 9SM -RA SCT007 BKN028 OVC060 03/02 A3001 RMK P0002 T00330022 TSNO $ VIA AUTODIAL
PAGY 120932Z AUTO 03003KT 7SM -RA BKN007 BKN028 OVC060 03/02 A3001 RMK P0002 T00330022 TSNO $ VIA AUTODIAL
PAGY 120902Z AUTO 00000KT 7SM -RA FEW003 BKN029 OVC034 03/03 A3001 RMK P0001 T00330028 TSNO $ VIA AUTODIAL
PAGY 120853Z AUTO 00000KT 6SM -RA BR BKN003 BKN029 OVC034 03/03 A3000 RMK SLP159 P0004 60008 T00330028 400780033 53007 TSNO $ VIA AUTODIAL
PAGY 120821Z AUTO 03003KT 3SM -RA BR BKN003 BKN019 OVC034 03/02 A2999 RMK P0001 T00330022 TSNO $ VIA AUTODIAL
PAGY 120813Z AUTO 04003KT 2SM -RA BR SCT004 BKN018 OVC034 04/02 A2999 RMK P0000 T00390022 TSNO $ VIA AUTODIAL
PAGY 120753Z AUTO 00000KT 3SM -RA BR FEW004 BKN035 OVC070 04/03 A2998 RMK SLP153 P0001 T00390028 TSNO $ VIA AUTODIAL
PAGY 120743Z AUTO 00000KT 3SM -RA BR FEW005 BKN034 OVC055 04/03 A2998 RMK P0000 T00390028 TSNO $ VIA AUTODIAL
PAGY 120720Z AUTO 01003KT 8SM -RA SCT019 OVC035 04/03 A2998 RMK P0000 T00390028 TSNO $ VIA AUTODIAL
PAGY 120653Z AUTO 00000KT 6SM -RA BR FEW004 BKN019 OVC034 04/03 A2998 RMK SLP151 P0003 T00390028 TSNO $ VIA AUTODIAL
PAGY 120651Z AUTO 00000KT 6SM -RA BR FEW004 BKN019 OVC034 04/03 A2998 RMK P0003 TSNO $ VIA AUTODIAL
PAGY 120640Z AUTO 00000KT 5SM -RA BR FEW004 BKN034 OVC049 04/03 A2998 RMK P0003 T00440028 TSNO $ VIA AUTODIAL
PAGY 120623Z AUTO 00000KT 4SM -RA BR FEW023 BKN030 OVC049 04/03 A2998 RMK P0002 T00390028 TSNO $ VIA AUTODIAL
PAGY 120608Z AUTO 00000KT 2 1/2SM -RA BR FEW004 BKN030 OVC035 04/03 A2998 RMK P0002 T00440033 TSNO $ VIA AUTODIAL
PAGY 120553Z AUTO 00000KT 4SM -RA BR SCT002 SCT009 OVC026 04/03 A2998 RMK SLP153 P0004 60008 T00440033 10067 20044 58002 TSNO $ VIA AUTODIAL
PAGY 120551Z AUTO 00000KT 3SM -RA BR SCT002 BKN009 OVC026 04/03 A2998 RMK P0004 TSNO $ VIA AUTODIAL
PAGY 120547Z AUTO 00000KT 2 1/2SM -RA BR SCT002 BKN009 OVC022 04/03 A2998 RMK P0004 TSNO $ VIA AUTODIAL
PAGY 120542Z AUTO 00000KT 1 3/4SM -RA BR SCT003 BKN016 OVC025 04/03 A2998 RMK P0003 T00440033 TSNO $ VIA AUTODIAL
PAGY 120537Z AUTO 00000KT 1 1/4SM -RA BR FEW003 BKN010 OVC024 04/03 A2998 RMK P0002 T00440028 TSNO $ VIA AUTODIAL
PAGY 120533Z AUTO 00000KT 1 3/4SM -RA BR SCT003 BKN024 OVC034 04/03 A2998 RMK P0002 T00440033 TSNO $ VIA AUTODIAL
PAGY 120521Z AUTO 00000KT 4SM -RA BR FEW003 FEW007 OVC022 05/03 A2999 RMK P0001 T00500033 TSNO $ VIA AUTODIAL
PAGY 120514Z AUTO 00000KT 2SM -RA BR SCT005 OVC022 04/03 A2999 RMK P0001 T00440033 TSNO $ VIA AUTODIAL
PAGY 120507Z AUTO 00000KT 1 1/2SM -RA BR SCT003 BKN008 OVC022 04/03 A2999 RMK P0001 T00440033 TSNO $ VIA AUTODIAL
PAGY 120504Z AUTO 00000KT 2SM -RA BR SCT005 BKN011 OVC022 04/03 A2999 RMK P0000 T00440033 TSNO $ VIA AUTODIAL
PAGY 120453Z AUTO 00000KT 3SM -RA BR BKN005 OVC011 04/03 A2999 RMK SLP155 P0002 T00440033 TSNO $ VIA AUTODIAL
PAGY 120451Z AUTO 00000KT 3SM -RA BR BKN005 OVC010 04/03 A2999 RMK P0002 TSNO $ VIA AUTODIAL
PAGY 120448Z AUTO 00000KT 2SM -RA BR BKN005 OVC010 04/03 A2999 RMK P0002 TSNO $ VIA AUTODIAL
PAGY 120440Z AUTO 00000KT 2 1/2SM -RA BR SCT005 OVC012 05/03 A2999 RMK P0002 T00500033 TSNO $ VIA AUTODIAL
PAGY 120353Z AUTO 00000KT 5SM -RA BR OVC007 05/04 A2999 RMK SLP155 P0002 T00500039 TSNO $ VIA AUTODIAL
PAGY 120332Z AUTO 03003KT 5SM -RA BR BKN007 OVC010 05/03 A2999 RMK P0001 T00500033 TSNO $ VIA AUTODIAL
PAGY 120325Z AUTO 04003KT 4SM -RA BR SCT007 BKN010 OVC015 05/04 A2999 RMK P0001 T00500039 TSNO $ VIA AUTODIAL
PAGY 120318Z AUTO 00000KT 3SM -RA BR BKN008 OVC015 05/04 A2999 RMK P0001 T00500039 TSNO $ VIA AUTODIAL
PAGY 120253Z AUTO 25005KT 5SM -RA BR OVC013 05/03 A2999 RMK SLP156 P0000 60000 T00500033 53007 TSNO $ VIA AUTODIAL
PAGY 120226Z AUTO 28005KT 8SM -RA BKN014 BKN029 OVC035 06/03 A2999 RMK P0000 T00560033 TSNO $ VIA AUTODIAL
PAGY 120153Z AUTO 24009KT 10SM -RA BKN039 OVC046 06/03 A2998 RMK RAB47 SLP152 P0000 T00560028 TSNO $ VIA AUTODIAL
PAGY 120053Z AUTO 21013G22KT 10SM OVC050 07/03 A2997 RMK SLP149 T00670028 TSNO $ VIA AUTODIAL
PAGY 112353Z AUTO 21016G25KT 10SM CLR 06/03 A2997 RMK PK WND 20027/2320 SLP149 60003 T00610028 10072 20061 58003 TSNO VIA AUTODIAL
PAGY 112253Z AUTO 21022G27KT 10SM CLR 07/02 A2997 RMK PK WND 21032/2214 SLP150 T00670022 TSNO $ VIA AUTODIAL
PAGY 112153Z AUTO 21024G31KT 10SM OVC090 07/02 A2998 RMK PK WND 21032/2107 SLP152 T00670022 TSNO VIA AUTODIAL
PAGY 112053Z AUTO 21022G27KT 10SM BKN070 OVC085 07/03 A2998 RMK PK WND 21028/2051 RAE1956 SLP152 P0001 60003 T00670028 51019 TSNO $ VIA AUTODIAL
PAGY 111953Z AUTO 20011G19KT 10SM -RA SCT043 OVC090 07/03 A2998 RMK SLP151 P0000 T00670028 TSNO $ VIA AUTODIAL
PAGY 111853Z AUTO 20017G23KT 10SM -RA OVC046 07/03 A2995 RMK SLP141 P0002 T00670028 TSNO VIA AUTODIAL
PAGY 111753Z AUTO 20009G18KT 9SM -RA OVC039 07/03 A2993 RMK SLP134 P0005 60063 T00720033 10078 20033 52035 TSNO VIA AUTODIAL
PAGY 111653Z AUTO VRB03KT 5SM -RA OVC036 07/04 A2990 RMK SLP125 P0007 T00720039 TSNO VIA AUTODIAL
PAGY 111553Z AUTO 06007KT 030V130 3SM RA BR OVC035 06/04 A2985 RMK SLP107 P0012 T00610039 TSNO VIA AUTODIAL
PAGY 111514Z AUTO 06008KT 020V080 5SM RA BR OVC033 06/04 A2983 RMK P0003 T00560039 TSNO VIA AUTODIAL
PAGY 111453Z AUTO 03012KT 4SM RA BR FEW013 BKN027 OVC037 06/03 A2982 RMK SLP099 P0012 60039 T00560033 53001 TSNO $ VIA AUTODIAL
PAGY 111450Z AUTO 03010KT 4SM RA BR SCT015 BKN027 OVC037 06/03 A2982 RMK P0011 TSNO $ VIA AUTODIAL
PAGY 111440Z AUTO 03008KT 4SM RA BR BKN013 OVC021 05/03 A2982 RMK P0009 T00500033 TSNO $ VIA AUTODIAL
PAGY 111420Z AUTO VRB03KT 5SM RA BR SCT013 BKN020 OVC028 05/03 A2982 RMK P0006 T00500033 TSNO $ VIA AUTODIAL
PAGY 111353Z AUTO VRB05KT 5SM -RA BR FEW011 OVC036 04/03 A2982 RMK SLP098 P0013 T00390028 TSNO $ VIA AUTODIAL
PAGY 111253Z AUTO 00000KT 3SM RA BR FEW014 OVC033 03/02 A2982 RMK SLP098 P0014 T00330022 TSNO $ VIA AUTODIAL
PAGY 111251Z AUTO 00000KT 3SM RA BR FEW014 OVC031 03/02 A2982 RMK P0014 TSNO $ VIA AUTODIAL
PAGY 111248Z AUTO 00000KT 2 1/2SM RA BR FEW014 OVC031 03/02 A2982 RMK P0013 TSNO $ VIA AUTODIAL
PAGY 111204Z AUTO 05003KT 5SM RA BR BKN017 OVC029 03/02 A2982 RMK P0002 T00330017 TSNO $ VIA AUTODIAL
PAGY 111153Z AUTO 03004KT 5SM -RA BR SCT019 OVC034 03/02 A2983 RMK SLP101 P0011 60056 70072 T00330022 10044 20033 56019 TSNO $ VIA AUTODIAL
PAGY 111053Z AUTO 00000KT 4SM RA BR FEW029 OVC044 03/02 A2983 RMK SLP102 P0010 T00330022 TSNO $ VIA AUTODIAL
PAGY 110953Z AUTO 00000KT 4SM RA BR SCT008 OVC044 04/03 A2987 RMK SLP114 P0009 T00390028 TSNO $ VIA AUTODIAL
PAGY 110935Z AUTO 00000KT 5SM RA BR BKN007 OVC041 03/02 A2988 RMK P0007 T00330022 TSNO $ VIA AUTODIAL
PAGY 110926Z AUTO 04003KT 5SM RA BR FEW005 SCT009 OVC044 04/02 A2987 RMK P0005 T00390022 TSNO $ VIA AUTODIAL
PAGY 110853Z AUTO 00000KT 3SM -RA BR FEW010 OVC040 04/03 A2988 RMK SLP119 P0008 60026 T00390028 400830039 58003 TSNO $ VIA AUTODIAL
PAGY 110849Z AUTO 02003KT 3SM -RA BR FEW010 OVC040 04/03 A2988 RMK P0007 TSNO $ VIA AUTODIAL
PAGY 110810Z AUTO 00000KT 2 1/2SM -RA BR FEW004 SCT008 OVC034 04/03 A2989 RMK P0003 T00390028 TSNO $ VIA AUTODIAL
PAGY 110753Z AUTO 00000KT 3SM -RA BR FEW003 OVC034 04/03 A2989 RMK SLP122 P0008 T00440033 TSNO $ VIA AUTODIAL
PAGY 110751Z AUTO 00000KT 4SM -RA BR FEW003 OVC034 04/03 A2989 RMK P0008 TSNO $ VIA AUTODIAL
PAGY 110653Z AUTO 00000KT 5SM -RA BR OVC031 04/03 A2990 RMK SLP124 P0010 T00440033 TSNO $ VIA AUTODIAL
PAGY 110633Z AUTO 00000KT 5SM RA BR OVC031 04/03 A2990 RMK P0007 T00440033 TSNO $ VIA AUTODIAL
PAGY 110553Z AUTO 07003KT 4SM RA BR OVC029 04/03 A2990 RMK SLP126 P0011 60016 T00440028 10067 20039 56029 TSNO $ VIA AUTODIAL
PAGY 110543Z AUTO 04003KT 3SM RA BR OVC029 04/03 A2991 RMK P0009 T00440028 TSNO $ VIA AUTODIAL
PAGY 110453Z AUTO VRB04KT 8SM -RA OVC037 06/03 A2992 RMK SLP132 P0001 T00610028 TSNO $ VIA AUTODIAL
PAGY 110353Z AUTO VRB05KT 10SM -RA OVC037 06/03 A2996 RMK SLP145 P0003 T00610028 TSNO $ VIA AUTODIAL
PAGY 110253Z AUTO 05003KT 7SM -RA OVC033 04/02 A2999 RMK RAB06 SLP155 P0001 60001 T00390022 58045 TSNO $ VIA AUTODIAL